Anderson, Indiana
Current Conditions -  °F | °C
As of 3:53 AM on Monday 22 Dec 2014 (Local Time) from KMIE Reporting Station
Haze Haze  
Wind Chill: 19°   Ceiling: Unl
Heat Index: 25°   Visibility: 5mi
Dew Point: 22°   Wind: 5mph
Humidity: 88%   Direction: 100°E
Pressure: 30.02"   Gusts: NA
Location:  40.1°N, 85.68°W
Report Text: KMIE 220853Z AUTO 10004KT 5SM BR CLR M04/M06 A3002 RMK AO2 SLP172 T10391056 58015
Loading
Personal Weather Stations






























Interactive Weather Map New forecast layout! Learn more

10-Day Weather Forecast

Advertisements
Track Severe Weather on mobile